Time;durP1;ratioP1;P1;durP2;ratioP2;P2;SDS_P1;SDS_P2;PMS_P1;PMS_P2;Temp;Humidity;BMP_temperature;BMP_pressure;BME280_temperature;BME280_humidity;BME280_pressure;Samples;Min_cycle;Max_cycle;Signal;HPM_P1;HPM_P2
2023/09/06 00:01:19;;;;;;;7.17;6.57;;;18.30;1.00;;;;;;5064444;28;20471;-75
2023/09/06 00:03:46;;;;;;;7.03;6.53;;;18.30;1.00;;;;;;5066301;28;21065;-75
2023/09/06 00:06:13;;;;;;;6.97;6.27;;;18.20;1.00;;;;;;5065673;28;20455;-75
2023/09/06 00:08:40;;;;;;;7.30;6.80;;;18.10;1.00;;;;;;5064527;28;20470;-75
2023/09/06 00:11:07;;;;;;;7.70;7.10;;;18.10;1.00;;;;;;5065650;28;20461;-74
2023/09/06 00:13:35;;;;;;;7.50;6.80;;;18.00;1.00;;;;;;5065000;28;20478;-74
2023/09/06 00:16:07;;;;;;;10.23;7.20;;;18.00;1.00;;;;;;5066167;28;20582;-75
2023/09/06 00:18:34;;;;;;;7.37;6.67;;;18.00;1.00;;;;;;5062253;28;20458;-75
2023/09/06 00:21:01;;;;;;;7.80;7.10;;;18.00;1.00;;;;;;5066615;28;20459;-75
2023/09/06 00:23:28;;;;;;;6.83;6.23;;;18.00;1.00;;;;;;5065677;28;20475;-75
2023/09/06 00:25:55;;;;;;;9.20;6.30;;;18.00;1.00;;;;;;5062722;28;20508;-75
2023/09/06 00:28:23;;;;;;;7.40;6.80;;;17.90;1.00;;;;;;5063594;28;20557;-74
2023/09/06 00:30:51;;;;;;;7.30;6.67;;;17.90;1.00;;;;;;5064204;28;20471;-76
2023/09/06 00:33:21;;;;;;;7.80;7.10;;;18.00;1.00;;;;;;5063047;28;20990;-75
2023/09/06 00:35:48;;;;;;;7.50;6.80;;;17.90;1.00;;;;;;5060930;28;21020;-76
2023/09/06 00:38:15;;;;;;;7.27;6.53;;;17.90;1.00;;;;;;5065612;28;20461;-75
2023/09/06 00:40:42;;;;;;;7.37;6.77;;;17.90;1.00;;;;;;5063549;28;20915;-75
2023/09/06 00:43:09;;;;;;;6.83;6.23;;;17.90;1.00;;;;;;5061745;28;20473;-74
2023/09/06 00:45:43;;;;;;;7.37;6.67;;;17.90;1.00;;;;;;5060083;28;20541;-74
2023/09/06 00:48:12;;;;;;;7.57;7.00;;;17.90;1.00;;;;;;5062357;28;21042;-75
2023/09/06 00:50:43;;;;;;;7.70;7.00;;;17.80;1.00;;;;;;5058304;28;20456;-75
2023/09/06 00:53:10;;;;;;;7.33;6.80;;;17.80;1.00;;;;;;5063103;28;20493;-75
2023/09/06 00:55:38;;;;;;;7.70;7.00;;;17.80;1.00;;;;;;5060974;28;20549;-75
2023/09/06 00:58:06;;;;;;;6.60;6.10;;;17.60;1.00;;;;;;5068436;28;20556;-74
2023/09/06 01:00:33;;;;;;;7.77;7.07;;;17.60;1.00;;;;;;5061090;28;20485;-76
2023/09/06 01:03:00;;;;;;;6.87;6.30;;;17.60;1.00;;;;;;5060576;28;20461;-75
2023/09/06 01:05:30;;;;;;;7.30;6.80;;;17.60;1.00;;;;;;5065308;28;20552;-75
2023/09/06 01:08:04;;;;;;;7.20;6.50;;;17.50;1.00;;;;;;5060967;28;21523;-76
2023/09/06 01:10:31;;;;;;;6.60;6.00;;;17.50;1.00;;;;;;5065130;28;20465;-75
2023/09/06 01:12:58;;;;;;;7.40;6.70;;;17.50;1.00;;;;;;5066764;28;20434;-74
2023/09/06 01:15:26;;;;;;;7.63;7.07;;;17.60;1.00;;;;;;5064169;28;22677;-75
2023/09/06 01:17:54;;;;;;;7.50;6.77;;;17.50;1.00;;;;;;5060230;28;20865;-74
2023/09/06 01:20:29;;;;;;;6.40;5.90;;;17.50;1.00;;;;;;5064237;28;20453;-77
2023/09/06 01:23:21;;;;;;;7.27;6.57;;;17.50;1.00;;;;;;5060733;28;20536;-78
2023/09/06 01:25:50;;;;;;;7.47;6.77;;;17.40;1.00;;;;;;5061281;28;20533;-75
2023/09/06 01:28:20;;;;;;;7.40;6.90;;;17.40;1.00;;;;;;5060404;28;20543;-76
2023/09/06 01:30:47;;;;;;;7.90;7.20;;;17.30;1.00;;;;;;5056415;28;20462;-74
2023/09/06 01:33:16;;;;;;;7.43;6.73;;;17.30;1.00;;;;;;5062559;28;20473;-75
2023/09/06 01:35:43;;;;;;;7.20;6.60;;;17.30;1.00;;;;;;5063222;28;20974;-75
2023/09/06 01:38:11;;;;;;;7.90;7.17;;;17.30;1.00;;;;;;5063324;28;20526;-75
2023/09/06 01:40:38;;;;;;;7.23;6.73;;;17.20;1.00;;;;;;5058882;28;20512;-75
2023/09/06 01:43:08;;;;;;;6.97;6.47;;;17.20;1.00;;;;;;5058199;28;20532;-72
2023/09/06 01:45:36;;;;;;;8.37;7.63;;;17.20;1.00;;;;;;5062110;28;20525;-72
2023/09/06 01:48:03;;;;;;;7.97;7.37;;;17.20;1.00;;;;;;5063427;28;20538;-73
2023/09/06 01:50:30;;;;;;;8.37;7.37;;;17.10;1.00;;;;;;5062905;28;20490;-71
2023/09/06 01:52:57;;;;;;;7.07;6.57;;;17.10;1.00;;;;;;5060041;28;21063;-73
2023/09/06 01:55:24;;;;;;;7.60;7.00;;;17.10;1.00;;;;;;5059547;28;20457;-72
2023/09/06 01:57:51;;;;;;;7.77;7.10;;;17.00;1.00;;;;;;5062635;28;20500;-72
2023/09/06 02:00:22;;;;;;;7.97;7.27;;;17.00;1.00;;;;;;5058541;28;21366;-73
2023/09/06 02:02:49;;;;;;;7.53;6.93;;;17.00;1.00;;;;;;5061331;28;20471;-71
2023/09/06 02:05:16;;;;;;;6.80;6.30;;;16.90;1.00;;;;;;5056719;28;20915;-73
2023/09/06 02:07:43;;;;;;;8.10;7.50;;;16.90;1.00;;;;;;5060583;28;20490;-71
2023/09/06 02:10:10;;;;;;;8.33;7.70;;;16.90;1.00;;;;;;5059735;28;20460;-73
2023/09/06 02:12:37;;;;;;;9.10;7.40;;;16.90;1.00;;;;;;5058542;28;20471;-72
2023/09/06 02:15:06;;;;;;;7.83;7.17;;;16.80;1.00;;;;;;5059640;28;20506;-70
2023/09/06 02:17:35;;;;;;;8.60;7.10;;;16.80;1.00;;;;;;5059543;28;20473;-73
2023/09/06 02:20:12;;;;;;;7.80;7.20;;;16.80;1.00;;;;;;5060281;28;20459;-73
2023/09/06 02:22:40;;;;;;;8.00;7.20;;;16.70;1.00;;;;;;5058983;28;20531;-70
2023/09/06 02:25:08;;;;;;;7.43;6.83;;;16.70;1.00;;;;;;5040764;28;20460;-73
2023/09/06 02:27:35;;;;;;;10.63;9.63;;;16.60;1.00;;;;;;5063960;28;20621;-73
2023/09/06 02:30:05;;;;;;;8.87;8.17;;;16.60;1.00;;;;;;5064293;28;20493;-73
2023/09/06 02:32:32;;;;;;;9.10;8.30;;;16.60;1.00;;;;;;5062155;28;20975;-71
2023/09/06 02:35:00;;;;;;;8.80;7.90;;;16.50;1.00;;;;;;5061841;28;21587;-72
2023/09/06 02:37:27;;;;;;;8.33;7.63;;;16.50;1.00;;;;;;5063703;28;20593;-72
2023/09/06 02:39:54;;;;;;;8.70;8.00;;;16.50;1.00;;;;;;5064161;28;20568;-72
2023/09/06 02:42:21;;;;;;;9.00;8.17;;;16.40;1.00;;;;;;5061982;28;20698;-71
2023/09/06 02:44:49;;;;;;;8.50;7.90;;;16.50;1.00;;;;;;5061120;28;20500;-72
2023/09/06 02:47:16;;;;;;;10.30;8.37;;;16.40;1.00;;;;;;5064258;28;20475;-72
2023/09/06 02:49:43;;;;;;;10.33;8.73;;;16.40;1.00;;;;;;5060866;28;20468;-72
2023/09/06 02:52:20;;;;;;;9.70;8.13;;;16.40;1.00;;;;;;5061990;28;20543;-75
2023/09/06 02:54:48;;;;;;;49.47;36.43;;;16.40;1.00;;;;;;5060864;28;20464;-76
2023/09/06 02:57:20;;;;;;;9.30;8.50;;;16.40;1.00;;;;;;5064170;28;20429;-75
2023/09/06 02:59:47;;;;;;;9.10;8.10;;;16.30;1.00;;;;;;5060394;28;21059;-74
2023/09/06 03:02:14;;;;;;;9.17;8.30;;;16.30;1.00;;;;;;5064032;28;20471;-77
2023/09/06 03:04:42;;;;;;;9.83;8.80;;;16.30;1.00;;;;;;5057989;28;20569;-75
2023/09/06 03:07:09;;;;;;;8.83;8.03;;;16.30;1.00;;;;;;5061039;28;20498;-75
2023/09/06 03:09:39;;;;;;;9.77;8.97;;;16.30;1.00;;;;;;5062553;28;20614;-75
2023/09/06 03:12:11;;;;;;;9.40;8.60;;;16.30;1.00;;;;;;5059275;28;20467;-76
2023/09/06 03:14:39;;;;;;;9.00;8.20;;;16.30;1.00;;;;;;5060611;28;20876;-75
2023/09/06 03:17:09;;;;;;;9.63;8.83;;;16.30;1.00;;;;;;5061588;28;20471;-75
2023/09/06 03:19:40;;;;;;;9.73;8.67;;;16.30;1.00;;;;;;5060027;28;20468;-76
2023/09/06 03:22:09;;;;;;;9.50;8.70;;;16.30;1.00;;;;;;5062495;28;20471;-76
2023/09/06 03:24:40;;;;;;;10.50;9.50;;;16.30;1.00;;;;;;5062264;28;20960;-75
2023/09/06 03:27:07;;;;;;;9.70;8.90;;;16.30;1.00;;;;;;5062389;28;20542;-76
2023/09/06 03:29:37;;;;;;;10.97;8.90;;;16.20;1.00;;;;;;5034694;28;20872;-75
2023/09/06 03:32:07;;;;;;;9.73;8.83;;;16.20;1.00;;;;;;5059009;28;20464;-76
2023/09/06 03:34:34;;;;;;;9.57;8.77;;;16.20;1.00;;;;;;5064093;28;20491;-75
2023/09/06 03:37:04;;;;;;;10.57;9.67;;;16.10;1.00;;;;;;5063701;28;20459;-75
2023/09/06 03:39:32;;;;;;;13.63;8.57;;;16.10;1.00;;;;;;5060907;28;20472;-75
2023/09/06 03:42:01;;;;;;;10.73;9.83;;;16.10;1.00;;;;;;5062554;28;20586;-74
2023/09/06 03:44:31;;;;;;;9.57;8.50;;;16.10;1.00;;;;;;5063011;28;20467;-78
2023/09/06 03:46:58;;;;;;;10.93;9.40;;;16.10;1.00;;;;;;5063010;28;21033;-76
2023/09/06 03:49:25;;;;;;;9.30;8.40;;;16.10;1.00;;;;;;5062428;28;21066;-76
2023/09/06 03:51:52;;;;;;;11.43;10.33;;;16.10;1.00;;;;;;5064363;28;20484;-75
2023/09/06 03:54:20;;;;;;;8.90;8.10;;;16.10;1.00;;;;;;5068135;28;20468;-76
2023/09/06 03:56:46;;;;;;;9.37;8.47;;;16.10;1.00;;;;;;5067277;28;20999;-78
2023/09/06 03:59:15;;;;;;;9.63;8.83;;;16.10;1.00;;;;;;5063515;28;20484;-75
2023/09/06 04:01:43;;;;;;;9.70;8.90;;;16.10;1.00;;;;;;5064529;28;20477;-76
2023/09/06 04:04:12;;;;;;;10.57;9.57;;;16.00;1.00;;;;;;5059440;28;20523;-74
2023/09/06 04:06:43;;;;;;;10.67;9.30;;;16.00;1.00;;;;;;5063992;28;20463;-75
2023/09/06 04:09:13;;;;;;;9.47;8.70;;;16.00;1.00;;;;;;5064305;28;20545;-75
2023/09/06 04:11:40;;;;;;;10.10;9.20;;;16.00;1.00;;;;;;5059355;28;20483;-75
2023/09/06 04:14:07;;;;;;;17.87;16.27;;;16.00;1.00;;;;;;5063543;28;20543;-74
2023/09/06 04:16:37;;;;;;;8.77;7.90;;;16.00;1.00;;;;;;5064983;28;20515;-76
2023/09/06 04:19:04;;;;;;;12.47;11.37;;;16.00;1.00;;;;;;5065845;28;20554;-76
2023/09/06 04:21:33;;;;;;;9.93;8.93;;;16.00;1.00;;;;;;5063500;28;21135;-75
2023/09/06 04:24:00;;;;;;;10.53;9.50;;;16.00;1.00;;;;;;5052320;28;20455;-74
2023/09/06 04:26:27;;;;;;;12.43;10.10;;;16.00;1.00;;;;;;5056341;28;20467;-76
2023/09/06 04:28:53;;;;;;;10.20;9.30;;;16.00;1.00;;;;;;5053480;28;20491;-75
2023/09/06 04:31:20;;;;;;;12.63;11.33;;;15.90;1.00;;;;;;5060174;28;21523;-75
2023/09/06 04:33:48;;;;;;;13.40;9.73;;;15.90;1.00;;;;;;5060676;28;20955;-76
2023/09/06 04:36:18;;;;;;;11.73;10.53;;;15.80;1.00;;;;;;5060470;28;20982;-75
2023/09/06 04:38:46;;;;;;;10.63;9.77;;;15.80;1.00;;;;;;5063296;28;20998;-76
2023/09/06 04:41:14;;;;;;;11.50;10.50;;;15.80;1.00;;;;;;5064458;28;20480;-74
2023/09/06 04:43:41;;;;;;;11.37;9.80;;;15.80;1.00;;;;;;5063321;28;20438;-74
2023/09/06 04:46:08;;;;;;;9.33;8.33;;;15.80;1.00;;;;;;5063815;28;20487;-76
2023/09/06 04:48:36;;;;;;;25.50;21.67;;;15.80;1.00;;;;;;5061909;28;21201;-74
2023/09/06 04:51:05;;;;;;;11.47;10.37;;;15.80;1.00;;;;;;5062190;28;20475;-76
2023/09/06 04:53:32;;;;;;;11.00;9.93;;;15.70;1.00;;;;;;5062998;28;20476;-74
2023/09/06 04:56:02;;;;;;;14.07;10.83;;;15.70;1.00;;;;;;5061775;28;20463;-75
2023/09/06 04:58:29;;;;;;;11.20;10.10;;;15.70;1.00;;;;;;5063968;28;20454;-75
2023/09/06 05:01:02;;;;;;;11.17;10.03;;;15.80;1.00;;;;;;5061502;28;20425;-75
2023/09/06 05:03:31;;;;;;;10.63;9.73;;;15.80;1.00;;;;;;5061680;28;20517;-74
2023/09/06 05:05:58;;;;;;;11.03;10.03;;;15.80;1.00;;;;;;5059203;28;20463;-75
2023/09/06 05:08:26;;;;;;;27.70;24.67;;;15.80;1.00;;;;;;5063916;28;20880;-76
2023/09/06 05:10:53;;;;;;;12.87;10.10;;;15.80;1.00;;;;;;5065435;28;20554;-76
2023/09/06 05:13:20;;;;;;;10.93;9.93;;;15.80;1.00;;;;;;5065651;28;20479;-74
2023/09/06 05:15:47;;;;;;;12.47;11.17;;;15.90;1.00;;;;;;5059910;28;20550;-75
2023/09/06 05:18:15;;;;;;;10.57;9.70;;;15.90;1.00;;;;;;5063261;28;20486;-76
2023/09/06 05:20:42;;;;;;;15.57;12.70;;;15.90;1.00;;;;;;5058427;28;22226;-74
2023/09/06 05:23:11;;;;;;;11.37;10.23;;;16.00;1.00;;;;;;5059622;28;20447;-75
2023/09/06 05:25:40;;;;;;;12.80;11.53;;;16.00;1.00;;;;;;5057603;28;20468;-78
2023/09/06 05:28:09;;;;;;;12.60;11.30;;;16.10;1.00;;;;;;5056899;28;20456;-73
2023/09/06 05:30:38;;;;;;;10.93;9.83;;;16.20;1.00;;;;;;5059540;28;20514;-76
2023/09/06 05:33:06;;;;;;;18.17;16.40;;;16.20;1.00;;;;;;5060971;28;20469;-75
2023/09/06 05:35:34;;;;;;;12.00;10.90;;;16.20;1.00;;;;;;5062775;28;20468;-76
2023/09/06 05:38:02;;;;;;;12.60;11.50;;;16.30;1.00;;;;;;5059009;28;20983;-74
2023/09/06 05:40:32;;;;;;;16.00;11.90;;;16.40;1.00;;;;;;5058847;28;20491;-80
2023/09/06 05:43:00;;;;;;;10.87;9.90;;;16.50;1.00;;;;;;5062375;28;20459;-75
2023/09/06 05:45:28;;;;;;;11.77;10.67;;;16.60;1.00;;;;;;5055732;28;20480;-76
2023/09/06 05:47:55;;;;;;;12.70;10.40;;;16.70;1.00;;;;;;5060204;28;20476;-76
2023/09/06 05:50:26;;;;;;;15.93;14.50;;;16.80;1.00;;;;;;5062209;28;20565;-77
2023/09/06 05:52:53;;;;;;;11.40;10.40;;;16.90;1.00;;;;;;5059221;28;20458;-78
2023/09/06 05:55:21;;;;;;;10.60;9.60;;;16.90;1.00;;;;;;5068535;28;20935;-78
2023/09/06 05:57:48;;;;;;;10.73;9.83;;;17.10;1.00;;;;;;5059774;28;20912;-76
2023/09/06 06:00:17;;;;;;;11.30;10.40;;;17.20;1.00;;;;;;5061503;28;20598;-76
2023/09/06 06:02:46;;;;;;;10.47;9.57;;;17.30;1.00;;;;;;5064321;28;20522;-76
2023/09/06 06:05:13;;;;;;;10.60;9.60;;;17.30;1.00;;;;;;5059750;28;20462;-77
2023/09/06 06:07:40;;;;;;;16.17;12.20;;;17.30;1.00;;;;;;5057843;28;20960;-76
2023/09/06 06:10:10;;;;;;;11.90;10.70;;;17.40;1.00;;;;;;5057012;28;20477;-76
2023/09/06 06:12:37;;;;;;;11.30;10.27;;;17.50;1.00;;;;;;5059614;28;20988;-76
2023/09/06 06:15:05;;;;;;;11.50;10.30;;;17.50;1.00;;;;;;5058962;28;20460;-76
2023/09/06 06:17:35;;;;;;;10.10;9.10;;;17.50;1.00;;;;;;5062473;28;20490;-77
2023/09/06 06:20:03;;;;;;;10.70;9.73;;;17.60;1.00;;;;;;5056450;28;21188;-76
2023/09/06 06:22:33;;;;;;;11.80;10.87;;;17.60;1.00;;;;;;5056883;28;20499;-73
2023/09/06 06:25:02;;;;;;;10.73;9.73;;;17.70;1.00;;;;;;5058296;28;20490;-73
2023/09/06 06:27:29;;;;;;;14.43;10.13;;;17.70;1.00;;;;;;5062628;28;20548;-73
2023/09/06 06:29:56;;;;;;;10.77;9.87;;;17.80;1.00;;;;;;5062842;28;20471;-73
2023/09/06 06:32:22;;;;;;;11.63;10.40;;;17.80;1.00;;;;;;5057725;28;20552;-72
2023/09/06 06:34:54;;;;;;;10.93;9.93;;;17.90;1.00;;;;;;5060797;28;20482;-73
2023/09/06 06:37:22;;;;;;;11.23;10.17;;;18.00;1.00;;;;;;5056568;28;20457;-74
2023/09/06 06:39:50;;;;;;;12.17;9.30;;;18.20;1.00;;;;;;5059894;28;20485;-72
2023/09/06 06:42:16;;;;;;;13.80;10.07;;;18.20;1.00;;;;;;5058971;28;20472;-73
2023/09/06 06:44:47;;;;;;;11.40;10.27;;;18.40;1.00;;;;;;5062195;28;20672;-73
2023/09/06 06:47:14;;;;;;;14.37;10.37;;;18.50;1.00;;;;;;5060960;28;20462;-76
2023/09/06 06:49:41;;;;;;;11.73;10.53;;;18.50;1.00;;;;;;5056674;28;20513;-75
2023/09/06 06:52:09;;;;;;;11.87;10.77;;;18.50;1.00;;;;;;5063393;28;20427;-75
2023/09/06 06:54:41;;;;;;;12.20;10.97;;;18.60;1.00;;;;;;5061131;28;20549;-74
2023/09/06 06:57:08;;;;;;;10.60;9.60;;;18.70;1.00;;;;;;5061502;28;20552;-75
2023/09/06 06:59:35;;;;;;;10.63;9.73;;;18.80;1.00;;;;;;5057954;28;20508;-76
2023/09/06 07:02:02;;;;;;;10.80;9.90;;;18.90;1.00;;;;;;5062884;28;20540;-76
2023/09/06 07:04:29;;;;;;;11.60;10.50;;;19.00;1.00;;;;;;5060794;28;20456;-76
2023/09/06 07:06:56;;;;;;;11.20;9.77;;;19.10;1.00;;;;;;5059318;28;20451;-76
2023/09/06 07:09:25;;;;;;;11.80;10.80;;;19.20;1.00;;;;;;5060074;28;20491;-76
2023/09/06 07:11:52;;;;;;;11.33;10.17;;;19.40;1.00;;;;;;5063286;28;20429;-74
2023/09/06 07:14:20;;;;;;;10.67;9.57;;;19.40;1.00;;;;;;5061518;28;20481;-76
2023/09/06 07:16:47;;;;;;;11.03;10.03;;;19.50;1.00;;;;;;5061120;28;20467;-74
2023/09/06 07:19:14;;;;;;;13.20;11.43;;;19.60;1.00;;;;;;5055859;28;20571;-77
2023/09/06 07:21:41;;;;;;;11.23;9.93;;;19.70;1.00;;;;;;5055091;28;20480;-75
2023/09/06 07:24:09;;;;;;;11.30;10.10;;;19.80;1.00;;;;;;5059910;28;20905;-76
2023/09/06 07:26:38;;;;;;;11.37;10.27;;;19.90;1.00;;;;;;5066872;28;20475;-76
2023/09/06 07:29:05;;;;;;;10.57;9.67;;;20.00;1.00;;;;;;5066029;28;20466;-74
2023/09/06 07:31:32;;;;;;;11.70;10.50;;;20.20;1.00;;;;;;5066738;28;20508;-77
2023/09/06 07:33:59;;;;;;;12.23;11.13;;;20.40;1.00;;;;;;5066542;28;20537;-72
2023/09/06 07:36:26;;;;;;;11.87;10.50;;;20.60;1.00;;;;;;5064469;28;20527;-72
2023/09/06 07:38:55;;;;;;;14.50;10.90;;;20.80;1.00;;;;;;5064530;28;20584;-70
2023/09/06 07:41:21;;;;;;;14.57;13.23;;;20.90;1.00;;;;;;5060967;28;20456;-70
2023/09/06 07:43:50;;;;;;;15.20;10.57;;;20.90;1.00;;;;;;5055437;28;20869;-69
2023/09/06 07:46:17;;;;;;;12.60;11.47;;;21.00;1.00;;;;;;5064570;28;20557;-71
2023/09/06 07:48:44;;;;;;;12.10;10.77;;;21.20;1.00;;;;;;5064510;28;20486;-72
2023/09/06 07:51:12;;;;;;;11.60;10.50;;;21.40;1.00;;;;;;5066126;28;20546;-71
2023/09/06 07:53:38;;;;;;;10.77;9.77;;;21.60;1.00;;;;;;5064915;28;20465;-71
2023/09/06 07:56:07;;;;;;;11.57;10.57;;;21.60;1.00;;;;;;5058443;28;20463;-71
2023/09/06 07:58:34;;;;;;;12.07;10.87;;;21.80;1.00;;;;;;5058966;28;20976;-69
2023/09/06 08:01:04;;;;;;;11.53;10.40;;;21.90;1.00;;;;;;5060759;28;20538;-70
2023/09/06 08:03:30;;;;;;;12.37;11.10;;;22.10;1.00;;;;;;5064364;28;20487;-69
2023/09/06 08:05:57;;;;;;;12.33;10.93;;;22.20;1.00;;;;;;5061770;28;20528;-70
2023/09/06 08:08:24;;;;;;;17.40;15.80;;;22.50;1.00;;;;;;5065639;28;20483;-70
2023/09/06 08:10:51;;;;;;;10.30;9.50;;;22.70;1.00;;;;;;5055804;28;20451;-70
2023/09/06 08:13:18;;;;;;;10.53;9.63;;;22.80;1.00;;;;;;5058373;28;20828;-73
2023/09/06 08:15:46;;;;;;;9.93;9.03;;;23.00;1.00;;;;;;5057853;28;20963;-72
2023/09/06 08:18:15;;;;;;;10.90;9.90;;;23.10;1.00;;;;;;5063365;28;20603;-71
2023/09/06 08:20:42;;;;;;;10.63;9.83;;;23.30;1.00;;;;;;5060748;28;20461;-70
2023/09/06 08:23:10;;;;;;;11.13;9.97;;;23.40;1.00;;;;;;5064854;28;20465;-73
2023/09/06 08:25:37;;;;;;;11.63;10.43;;;23.50;1.00;;;;;;5059188;28;20477;-71
2023/09/06 08:28:05;;;;;;;10.17;9.27;;;23.60;1.00;;;;;;5060501;28;20458;-71
2023/09/06 08:30:33;;;;;;;10.50;9.53;;;23.70;1.00;;;;;;5057646;28;20917;-70
2023/09/06 08:32:59;;;;;;;9.40;8.60;;;23.80;1.00;;;;;;5057112;28;20466;-70
2023/09/06 08:35:28;;;;;;;10.70;9.60;;;24.00;1.00;;;;;;5063232;28;20944;-70
2023/09/06 08:37:55;;;;;;;9.87;9.03;;;24.10;1.00;;;;;;5055100;28;20477;-74
2023/09/06 08:40:22;;;;;;;10.97;9.07;;;24.20;1.00;;;;;;5060381;28;20486;-70
2023/09/06 08:42:51;;;;;;;9.77;8.97;;;24.40;1.00;;;;;;5059847;28;20544;-73
2023/09/06 08:45:22;;;;;;;8.90;8.30;;;24.50;1.00;;;;;;5061258;28;20471;-74
2023/09/06 08:47:49;;;;;;;8.73;8.00;;;24.60;1.00;;;;;;5062519;28;21311;-73
2023/09/06 08:50:17;;;;;;;8.87;8.07;;;24.70;1.00;;;;;;5057419;28;20459;-74
2023/09/06 08:52:50;;;;;;;10.27;9.20;;;24.90;1.00;;;;;;5057986;28;20982;-73
2023/09/06 08:55:17;;;;;;;10.17;9.10;;;25.00;1.00;;;;;;5058173;28;20512;-72
2023/09/06 08:57:45;;;;;;;10.20;8.67;;;25.10;1.00;;;;;;5047721;28;20537;-72
2023/09/06 09:00:14;;;;;;;8.90;8.00;;;25.30;1.00;;;;;;5058159;28;20470;-76
2023/09/06 09:02:42;;;;;;;9.93;7.97;;;25.40;1.00;;;;;;5059414;28;20463;-73
2023/09/06 09:05:12;;;;;;;9.93;8.60;;;25.50;1.00;;;;;;5060783;28;20611;-75
2023/09/06 09:07:39;;;;;;;8.13;7.33;;;25.60;1.00;;;;;;5060141;28;21114;-75
2023/09/06 09:10:09;;;;;;;7.77;7.07;;;25.70;1.00;;;;;;5060772;28;20508;-75
2023/09/06 09:12:38;;;;;;;7.73;7.03;;;25.80;1.00;;;;;;5060680;28;20484;-73
2023/09/06 09:15:07;;;;;;;9.77;8.80;;;25.90;1.00;;;;;;5058741;28;20470;-72
2023/09/06 09:17:37;;;;;;;7.90;6.97;;;26.00;1.00;;;;;;5058292;28;21319;-73
2023/09/06 09:20:06;;;;;;;7.97;7.27;;;26.30;1.00;;;;;;5059615;28;20585;-73
2023/09/06 09:22:36;;;;;;;7.97;7.20;;;26.90;1.00;;;;;;5061675;28;20555;-76
2023/09/06 09:25:04;;;;;;;9.47;6.87;;;28.30;1.00;;;;;;5056604;28;21426;-75
2023/09/06 09:27:33;;;;;;;7.23;6.63;;;29.80;1.00;;;;;;5042990;28;20494;-75
2023/09/06 09:30:01;;;;;;;7.53;6.83;;;30.70;1.00;;;;;;5058106;28;20459;-75
2023/09/06 09:32:29;;;;;;;7.57;6.80;;;31.90;1.00;;;;;;5064231;28;21238;-75
2023/09/06 09:34:56;;;;;;;36.10;32.60;;;33.10;1.00;;;;;;5060494;28;20487;-74
2023/09/06 09:37:23;;;;;;;9.97;9.07;;;34.00;1.00;;;;;;5061813;28;20616;-75
2023/09/06 09:39:50;;;;;;;7.13;6.53;;;34.70;1.00;;;;;;5060774;28;20954;-74
2023/09/06 09:42:17;;;;;;;7.33;6.47;;;35.10;1.00;;;;;;5061018;28;20536;-76
2023/09/06 09:45:00;;;;;;;7.60;6.87;;;35.40;1.00;;;;;;5059986;28;20460;-76
2023/09/06 09:47:30;;;;;;;7.43;6.83;;;36.00;1.00;;;;;;5059204;28;20463;-73
2023/09/06 09:49:57;;;;;;;7.40;6.70;;;35.90;1.00;;;;;;5060721;28;20485;-75
2023/09/06 09:52:27;;;;;;;7.70;6.80;;;36.60;1.00;;;;;;5065933;28;21201;-75
2023/09/06 09:54:56;;;;;;;7.90;7.10;;;36.70;1.00;;;;;;5062086;28;20452;-74
2023/09/06 09:57:26;;;;;;;6.90;6.30;;;37.10;1.00;;;;;;5056860;28;20520;-71
2023/09/06 09:59:55;;;;;;;9.20;8.27;;;37.60;1.00;;;;;;5056904;28;20464;-72
2023/09/06 10:02:23;;;;;;;6.90;6.30;;;37.90;1.00;;;;;;5059600;28;20468;-74
2023/09/06 10:04:51;;;;;;;6.90;6.30;;;38.30;1.00;;;;;;5059059;28;20464;-75
2023/09/06 10:07:21;;;;;;;6.27;5.80;;;38.40;1.00;;;;;;5058520;28;20463;-71
2023/09/06 10:09:50;;;;;;;7.03;6.53;;;39.00;1.00;;;;;;5060683;28;20920;-70
2023/09/06 10:12:17;;;;;;;6.93;6.23;;;39.30;1.00;;;;;;5059870;28;22900;-70
2023/09/06 10:14:44;;;;;;;8.07;7.00;;;39.40;1.00;;;;;;5060535;28;20825;-70
2023/09/06 10:17:12;;;;;;;9.10;7.20;;;39.50;1.00;;;;;;5059853;28;20574;-69
2023/09/06 10:19:42;;;;;;;6.80;6.20;;;39.60;1.00;;;;;;5056733;28;21632;-71
2023/09/06 10:22:14;;;;;;;5.97;5.57;;;39.80;1.00;;;;;;5061312;28;20483;-69
2023/09/06 10:24:43;;;;;;;6.47;5.90;;;39.90;1.00;;;;;;5057356;28;20472;-71
2023/09/06 10:27:13;;;;;;;6.70;6.30;;;40.30;1.00;;;;;;5058435;28;20536;-69
2023/09/06 10:29:53;;;;;;;6.73;6.13;;;40.60;1.00;;;;;;5053223;28;20462;-70
2023/09/06 10:32:22;;;;;;;11.17;8.83;;;40.80;1.00;;;;;;5062253;28;20459;-71
2023/09/06 10:35:19;;;;;;;11.07;7.50;;;41.00;1.00;;;;;;5058027;28;20460;-71
2023/09/06 10:38:06;;;;;;;7.00;6.40;;;41.00;1.00;;;;;;5060776;28;20459;-71
2023/09/06 10:41:15;;;;;;;7.77;7.07;;;41.50;1.00;;;;;;5053549;28;23435;-72
2023/09/06 10:44:03;;;;;;;7.00;6.43;;;42.00;1.00;;;;;;5051355;28;20448;-69
2023/09/06 10:46:31;;;;;;;7.60;6.80;;;42.20;1.00;;;;;;5057379;28;20476;-70
2023/09/06 10:49:23;;;;;;;5.80;5.40;;;41.50;1.00;;;;;;5062383;28;20469;-69
2023/09/06 10:52:02;;;;;;;6.73;6.20;;;41.60;1.00;;;;;;5062338;28;20539;-70
2023/09/06 10:54:34;;;;;;;6.40;5.90;;;42.00;1.00;;;;;;5063194;28;20460;-70
2023/09/06 10:57:05;;;;;;;7.00;6.40;;;42.10;1.00;;;;;;5055464;28;20459;-70
2023/09/06 10:59:32;;;;;;;9.47;6.43;;;41.50;1.00;;;;;;5055199;28;20601;-71
2023/09/06 11:02:17;;;;;;;5.80;5.40;;;42.00;1.00;;;;;;5059903;28;20467;-69
2023/09/06 11:04:46;;;;;;;7.03;6.37;;;42.80;1.00;;;;;;5060769;28;21068;-74
2023/09/06 11:07:13;;;;;;;7.30;5.93;;;43.10;1.00;;;;;;5054104;28;20492;-74
2023/09/06 11:09:45;;;;;;;5.90;5.50;;;43.30;1.00;;;;;;5063674;28;20483;-74
2023/09/06 11:12:12;;;;;;;5.90;5.30;;;43.80;1.00;;;;;;5065529;28;20447;-76
2023/09/06 11:14:40;;;;;;;6.20;5.70;;;44.10;1.00;;;;;;5066903;28;20498;-77
2023/09/06 11:17:07;;;;;;;7.80;5.40;;;43.40;1.00;;;;;;5060032;28;20543;-74
2023/09/06 11:19:36;;;;;;;6.63;5.80;;;43.30;1.00;;;;;;5060209;28;20870;-75
2023/09/06 11:22:11;;;;;;;6.20;5.70;;;43.10;1.00;;;;;;5066182;28;20489;-74
2023/09/06 11:24:39;;;;;;;6.80;6.20;;;43.20;1.00;;;;;;5061509;28;20581;-73
2023/09/06 11:27:22;;;;;;;6.47;5.97;;;43.30;1.00;;;;;;5061006;28;20491;-71
2023/09/06 11:29:56;;;;;;;6.20;5.70;;;43.30;1.00;;;;;;5060198;28;20474;-72
2023/09/06 11:32:23;;;;;;;5.67;5.17;;;43.50;1.00;;;;;;5063862;28;20581;-71
2023/09/06 11:34:50;;;;;;;6.53;6.03;;;43.60;1.00;;;;;;5060559;28;20463;-70
2023/09/06 11:37:20;;;;;;;6.40;5.90;;;43.90;1.00;;;;;;5056419;28;20613;-70
2023/09/06 11:39:50;;;;;;;6.20;5.70;;;43.80;1.00;;;;;;5062619;28;20476;-69
2023/09/06 11:42:19;;;;;;;6.83;5.70;;;44.20;1.00;;;;;;5057116;28;20917;-72
2023/09/06 11:44:50;;;;;;;6.20;5.60;;;44.70;1.00;;;;;;5064500;28;20602;-71
2023/09/06 11:47:17;;;;;;;5.90;5.40;;;44.30;1.00;;;;;;5066765;28;20471;-71
2023/09/06 11:49:49;;;;;;;6.40;5.97;;;44.50;1.00;;;;;;5065546;28;20970;-69
2023/09/06 11:52:19;;;;;;;4.77;4.47;;;44.70;1.00;;;;;;5061192;28;20455;-73
2023/09/06 11:54:49;;;;;;;5.73;5.27;;;44.70;1.00;;;;;;5066476;28;20608;-69
2023/09/06 11:57:23;;;;;;;6.50;5.90;;;44.80;1.00;;;;;;5062683;28;20542;-74
2023/09/06 11:59:52;;;;;;;6.50;5.90;;;45.20;1.00;;;;;;5063208;28;20648;-72
2023/09/06 12:02:21;;;;;;;6.40;5.83;;;45.50;1.00;;;;;;5064670;28;20538;-72
2023/09/06 12:04:59;;;;;;;6.57;6.17;;;45.60;1.00;;;;;;5062497;28;20597;-72
2023/09/06 12:07:27;;;;;;;6.10;5.60;;;45.40;1.00;;;;;;5063974;28;20866;-72
2023/09/06 12:09:57;;;;;;;5.83;5.43;;;45.50;1.00;;;;;;5062316;28;20480;-71
2023/09/06 12:12:26;;;;;;;5.30;4.90;;;45.10;1.00;;;;;;5062747;28;20455;-70
2023/09/06 12:14:53;;;;;;;5.13;4.83;;;45.40;1.00;;;;;;5063677;28;20842;-74
2023/09/06 12:17:20;;;;;;;5.77;5.37;;;45.90;1.00;;;;;;5061180;28;20520;-72
2023/09/06 12:19:47;;;;;;;6.70;5.33;;;46.00;1.00;;;;;;5053084;28;20499;-73
2023/09/06 12:22:17;;;;;;;4.77;4.47;;;46.10;1.00;;;;;;5061837;28;20547;-73
2023/09/06 12:24:47;;;;;;;5.43;5.03;;;46.20;1.00;;;;;;5063180;28;20467;-73
2023/09/06 12:27:20;;;;;;;5.03;4.63;;;46.20;1.00;;;;;;5065412;28;20455;-72
2023/09/06 12:29:47;;;;;;;4.90;4.50;;;46.20;1.00;;;;;;5065489;28;21647;-71
2023/09/06 12:32:16;;;;;;;6.33;5.83;;;46.00;1.00;;;;;;5065467;28;20510;-71
2023/09/06 12:34:44;;;;;;;6.03;5.43;;;46.00;1.00;;;;;;5063571;28;20463;-72
2023/09/06 12:37:11;;;;;;;5.20;4.70;;;46.10;1.00;;;;;;5061118;28;20491;-72
2023/09/06 12:39:38;;;;;;;5.60;5.20;;;46.30;1.00;;;;;;5059944;28;20463;-72
2023/09/06 12:42:07;;;;;;;5.00;4.60;;;46.40;1.00;;;;;;5060970;28;20459;-72
2023/09/06 12:44:34;;;;;;;4.93;4.63;;;46.30;1.00;;;;;;5063593;28;20474;-73
2023/09/06 12:47:16;;;;;;;5.30;4.90;;;46.60;1.00;;;;;;5064074;28;20535;-73
2023/09/06 12:49:46;;;;;;;7.03;6.33;;;47.00;1.00;;;;;;5064206;28;21101;-74
2023/09/06 12:52:20;;;;;;;5.50;5.00;;;47.30;1.00;;;;;;5064431;28;20573;-74
2023/09/06 12:54:46;;;;;;;5.13;4.70;;;47.00;1.00;;;;;;5060008;28;20463;-74
2023/09/06 12:57:18;;;;;;;5.60;5.10;;;46.80;1.00;;;;;;5060426;28;20478;-73
2023/09/06 12:59:54;;;;;;;5.10;4.70;;;47.00;1.00;;;;;;5063953;28;20472;-75